Time;durP1;ratioP1;P1;durP2;ratioP2;P2;SDS_P1;SDS_P2;PMS_P1;PMS_P2;Temp;Humidity;BMP_temperature;BMP_pressure;BME280_temperature;BME280_humidity;BME280_pressure;Samples;Min_cycle;Max_cycle;Signal;HPM_P1;HPM_P2
2021/12/26 00:00:33;;;;;;;8.52;3.78;;;-5.70;99.90;;;;;;5073150;28;20082;-69
2021/12/26 00:03:00;;;;;;;6.32;3.35;;;-5.70;99.90;;;;;;5056913;28;20044;-69
2021/12/26 00:05:27;;;;;;;8.82;4.03;;;-5.70;99.90;;;;;;5038701;28;20179;-69
2021/12/26 00:07:53;;;;;;;10.15;3.92;;;-5.70;99.90;;;;;;5071242;28;20069;-68
2021/12/26 00:10:21;;;;;;;9.80;4.28;;;-5.60;99.90;;;;;;5074636;28;20047;-69
2021/12/26 00:12:48;;;;;;;9.50;3.83;;;-5.70;99.90;;;;;;5070292;28;20079;-70
2021/12/26 00:15:14;;;;;;;11.02;3.67;;;-5.60;99.90;;;;;;5068447;28;20589;-71
2021/12/26 00:17:39;;;;;;;9.57;3.90;;;-5.60;99.90;;;;;;5062353;28;20044;-69
2021/12/26 00:20:08;;;;;;;6.15;3.70;;;-5.70;99.90;;;;;;5069965;28;20082;-69
2021/12/26 00:22:33;;;;;;;8.57;3.63;;;-5.70;99.90;;;;;;5055913;28;20056;-70
2021/12/26 00:25:00;;;;;;;7.70;3.70;;;-5.10;99.90;;;;;;5090111;28;20366;-69
2021/12/26 00:27:27;;;;;;;9.82;3.55;;;-5.70;99.90;;;;;;5090547;28;20040;-69
2021/12/26 00:29:52;;;;;;;5.88;3.50;;;-5.70;99.90;;;;;;5073341;28;20051;-69
2021/12/26 00:32:18;;;;;;;7.35;3.38;;;-5.80;99.90;;;;;;5072146;28;20134;-69
2021/12/26 00:34:44;;;;;;;7.65;3.72;;;-5.80;99.90;;;;;;5038412;28;20075;-70
2021/12/26 00:37:11;;;;;;;7.90;3.60;;;-5.80;99.90;;;;;;5041925;28;20048;-69
2021/12/26 00:39:37;;;;;;;7.70;3.78;;;-5.90;99.90;;;;;;5057019;28;20075;-70
2021/12/26 00:42:03;;;;;;;6.93;3.60;;;-4.90;99.90;;;;;;5073288;28;21927;-70
2021/12/26 00:44:29;;;;;;;9.35;3.45;;;-5.90;99.90;;;;;;5076832;28;20046;-70
2021/12/26 00:46:55;;;;;;;7.82;3.60;;;-5.90;99.90;;;;;;5071064;28;20060;-70
2021/12/26 00:49:22;;;;;;;7.05;3.15;;;-5.90;99.90;;;;;;5034760;28;20499;-70
2021/12/26 00:51:48;;;;;;;6.97;3.40;;;-5.90;99.90;;;;;;5072058;28;20051;-71
2021/12/26 00:54:14;;;;;;;7.30;3.45;;;-5.90;99.90;;;;;;5041058;28;20065;-70
2021/12/26 00:56:40;;;;;;;6.68;3.20;;;-5.90;99.90;;;;;;5057603;28;20069;-69
2021/12/26 00:59:06;;;;;;;8.80;3.80;;;-5.90;99.90;;;;;;5071935;28;20044;-69
2021/12/26 01:01:32;;;;;;;6.90;3.60;;;-5.90;99.90;;;;;;5053847;28;20059;-70
2021/12/26 01:03:57;;;;;;;8.57;3.70;;;-5.80;99.90;;;;;;5036748;28;20044;-70
2021/12/26 01:06:24;;;;;;;7.20;3.05;;;-5.80;99.90;;;;;;5071523;28;20050;-70
2021/12/26 01:08:51;;;;;;;6.88;2.90;;;-5.80;99.90;;;;;;5057298;28;20080;-69
2021/12/26 01:11:33;;;;;;;7.32;3.40;;;-5.90;99.90;;;;;;5045957;28;20053;-70
2021/12/26 01:14:00;;;;;;;10.20;3.88;;;-5.80;99.90;;;;;;5056915;28;20080;-69
2021/12/26 01:16:27;;;;;;;8.75;3.17;;;-5.80;99.90;;;;;;5070886;28;20127;-70
2021/12/26 01:19:00;;;;;;;7.65;3.00;;;-5.80;99.90;;;;;;5070752;28;20128;-70
2021/12/26 01:21:26;;;;;;;9.55;3.30;;;-5.80;99.90;;;;;;5057359;28;20047;-69
2021/12/26 01:23:55;;;;;;;6.97;3.10;;;-5.80;99.90;;;;;;5068892;28;20070;-70
2021/12/26 01:26:21;;;;;;;6.32;3.30;;;-5.80;99.90;;;;;;5070901;28;20076;-69
2021/12/26 01:28:47;;;;;;;7.38;3.25;;;-5.70;99.90;;;;;;5072455;28;20073;-70
2021/12/26 01:31:18;;;;;;;4.35;2.70;;;-5.70;99.90;;;;;;5056089;28;20043;-69
2021/12/26 01:33:46;;;;;;;6.05;2.47;;;-5.70;99.90;;;;;;5057627;28;20052;-72
2021/12/26 01:36:12;;;;;;;4.32;2.60;;;-5.60;99.90;;;;;;5071397;28;20033;-69
2021/12/26 01:38:38;;;;;;;6.10;2.50;;;-5.60;99.90;;;;;;5071468;28;20093;-72
2021/12/26 01:41:09;;;;;;;7.72;2.53;;;-5.50;99.90;;;;;;5071819;28;20048;-69
2021/12/26 01:43:38;;;;;;;6.53;3.03;;;-5.60;99.90;;;;;;5071763;28;20052;-71
2021/12/26 01:46:03;;;;;;;8.18;2.70;;;-5.40;99.90;;;;;;5055660;28;20480;-70
2021/12/26 01:48:29;;;;;;;6.28;2.70;;;-4.60;99.90;;;;;;5073200;28;20044;-70
2021/12/26 01:50:55;;;;;;;4.50;2.47;;;-5.50;99.90;;;;;;5072391;28;20097;-69
2021/12/26 01:53:24;;;;;;;4.10;2.33;;;-5.20;99.90;;;;;;5072854;28;20048;-70
2021/12/26 01:55:51;;;;;;;9.40;2.60;;;-4.50;99.90;;;;;;5071165;28;20096;-69
2021/12/26 01:58:27;;;;;;;4.70;2.33;;;-5.50;99.90;;;;;;5030180;28;20082;-70
2021/12/26 02:00:57;;;;;;;6.18;2.55;;;-5.60;99.90;;;;;;5066496;28;20047;-70
2021/12/26 02:03:23;;;;;;;10.98;2.90;;;-5.50;99.90;;;;;;5079788;28;20035;-70
2021/12/26 02:05:49;;;;;;;5.72;3.00;;;-5.60;99.90;;;;;;5056499;28;20044;-70
2021/12/26 02:08:14;;;;;;;5.03;2.55;;;-5.60;99.90;;;;;;5073330;28;20115;-70
2021/12/26 02:10:41;;;;;;;6.65;2.50;;;-5.50;99.90;;;;;;5051278;28;20385;-71
2021/12/26 02:13:07;;;;;;;5.28;2.40;;;-5.50;99.90;;;;;;5068373;28;20131;-69
2021/12/26 02:15:33;;;;;;;4.80;2.28;;;-5.50;99.90;;;;;;5071735;28;20460;-70
2021/12/26 02:17:59;;;;;;;6.70;2.67;;;-5.50;99.90;;;;;;5067695;28;20047;-69
2021/12/26 02:20:44;;;;;;;5.78;2.83;;;-5.50;99.90;;;;;;5072894;28;20492;-69
2021/12/26 02:23:23;;;;;;;6.72;2.72;;;-5.60;99.90;;;;;;5073139;28;20053;-70
2021/12/26 02:28:34;;;;;;;7.03;2.92;;;-5.60;99.90;;;;;;5059211;28;20044;-70
2021/12/26 02:31:00;;;;;;;5.70;2.95;;;-5.50;99.90;;;;;;5069496;28;20053;-69
2021/12/26 02:33:26;;;;;;;5.75;2.53;;;-5.50;99.90;;;;;;5069905;28;20059;-70
2021/12/26 02:35:53;;;;;;;6.40;2.65;;;-5.70;99.90;;;;;;5072837;28;20040;-70
2021/12/26 02:38:19;;;;;;;5.03;2.30;;;-4.50;99.90;;;;;;5072560;28;20043;-70
2021/12/26 02:40:48;;;;;;;6.35;2.67;;;-5.70;99.90;;;;;;5069422;28;20120;-69
2021/12/26 02:43:17;;;;;;;4.60;2.50;;;-5.80;99.90;;;;;;5055598;28;20109;-70
2021/12/26 02:45:42;;;;;;;5.40;2.65;;;-5.80;99.90;;;;;;5054751;28;20445;-70
2021/12/26 02:48:10;;;;;;;7.13;2.83;;;-5.90;99.90;;;;;;5071525;28;20126;-69
2021/12/26 02:50:38;;;;;;;5.57;2.75;;;-5.30;99.90;;;;;;5070559;28;20045;-70
2021/12/26 02:53:08;;;;;;;5.40;2.80;;;-6.00;99.90;;;;;;5056050;28;20052;-70
2021/12/26 02:55:34;;;;;;;4.38;2.30;;;-5.20;99.90;;;;;;5070650;28;20099;-70
2021/12/26 02:58:07;;;;;;;3.75;2.25;;;-5.90;99.90;;;;;;5052990;28;20094;-69
2021/12/26 03:00:40;;;;;;;4.68;2.60;;;-5.90;99.90;;;;;;5050064;28;20048;-69
2021/12/26 03:03:07;;;;;;;3.50;2.30;;;-5.90;99.90;;;;;;5079532;28;20496;-69
2021/12/26 03:05:40;;;;;;;11.07;3.00;;;-5.90;99.90;;;;;;5048867;28;20102;-70
2021/12/26 03:08:09;;;;;;;5.25;2.53;;;-5.90;99.90;;;;;;5076543;28;20263;-69
2021/12/26 03:10:36;;;;;;;5.38;2.75;;;-5.90;99.90;;;;;;5076042;28;20097;-70
2021/12/26 03:13:04;;;;;;;6.88;2.63;;;-5.60;99.90;;;;;;5076223;28;20056;-71
2021/12/26 03:15:32;;;;;;;7.03;2.88;;;-5.90;99.90;;;;;;5076622;28;20060;-70
2021/12/26 03:17:59;;;;;;;5.25;2.63;;;-5.90;99.90;;;;;;5076106;28;20079;-70
2021/12/26 03:20:28;;;;;;;5.65;2.75;;;-5.80;99.90;;;;;;5076301;28;20052;-69
2021/12/26 03:22:53;;;;;;;7.78;2.78;;;-6.00;99.90;;;;;;5075764;28;20449;-70
2021/12/26 03:25:22;;;;;;;7.57;2.65;;;-5.90;99.90;;;;;;5073761;28;20087;-70
2021/12/26 03:27:50;;;;;;;5.90;2.92;;;-5.50;99.90;;;;;;5059506;28;20084;-70
2021/12/26 03:30:20;;;;;;;5.68;2.97;;;-6.00;99.90;;;;;;5076308;28;20056;-69
2021/12/26 03:32:46;;;;;;;6.13;2.85;;;-6.10;99.90;;;;;;5075468;28;20052;-69
2021/12/26 03:35:12;;;;;;;5.85;3.15;;;-6.10;99.90;;;;;;5076669;28;20042;-69
2021/12/26 03:37:39;;;;;;;7.93;2.65;;;-6.10;99.90;;;;;;5059188;28;20048;-68
2021/12/26 03:40:06;;;;;;;5.60;2.50;;;-6.10;99.90;;;;;;5058351;28;20060;-68
2021/12/26 03:42:33;;;;;;;6.63;2.85;;;-6.10;99.90;;;;;;5058505;28;20044;-68
2021/12/26 03:44:59;;;;;;;5.00;2.70;;;-5.60;99.90;;;;;;5073774;28;20151;-67
2021/12/26 03:47:29;;;;;;;7.07;2.58;;;-6.10;99.90;;;;;;5051912;28;20079;-67
2021/12/26 03:49:56;;;;;;;7.78;2.80;;;-6.10;99.90;;;;;;5050208;28;20047;-67
2021/12/26 03:52:25;;;;;;;6.00;2.60;;;-6.00;99.90;;;;;;5058361;28;20081;-68
2021/12/26 03:54:51;;;;;;;5.95;3.10;;;-6.10;99.90;;;;;;5058974;28;20129;-68
2021/12/26 03:57:17;;;;;;;8.98;2.72;;;-6.00;99.90;;;;;;5075667;28;20048;-68
2021/12/26 03:59:43;;;;;;;4.85;2.63;;;-6.00;99.90;;;;;;5075886;28;20512;-68
2021/12/26 04:02:09;;;;;;;6.22;2.67;;;-6.00;99.90;;;;;;5045071;28;20485;-67
2021/12/26 04:04:35;;;;;;;4.82;2.20;;;-6.00;99.90;;;;;;5075778;28;20507;-67
2021/12/26 04:07:01;;;;;;;6.65;2.67;;;-6.00;99.90;;;;;;5025217;28;20123;-67
2021/12/26 04:09:27;;;;;;;5.93;2.63;;;-6.00;99.90;;;;;;5059048;28;20157;-67
2021/12/26 04:11:53;;;;;;;4.90;2.65;;;-6.00;99.90;;;;;;5056966;28;20048;-67
2021/12/26 04:14:19;;;;;;;3.97;1.92;;;-6.00;99.90;;;;;;5055075;28;20052;-69
2021/12/26 04:16:45;;;;;;;7.10;2.22;;;-6.00;99.90;;;;;;5069866;28;20118;-68
2021/12/26 04:19:11;;;;;;;4.75;2.50;;;-4.90;99.90;;;;;;5075617;28;20052;-68
2021/12/26 04:21:36;;;;;;;5.80;2.58;;;-6.00;99.90;;;;;;5074526;28;20083;-68
2021/12/26 04:24:03;;;;;;;4.20;2.40;;;-6.00;99.90;;;;;;5024333;28;20084;-67
2021/12/26 04:26:29;;;;;;;4.78;2.30;;;-6.00;99.90;;;;;;5073883;28;20048;-68
2021/12/26 04:28:55;;;;;;;5.95;2.65;;;-6.00;99.90;;;;;;5053694;28;20048;-67
2021/12/26 04:31:21;;;;;;;3.75;2.10;;;-5.00;99.90;;;;;;5074494;28;20101;-68
2021/12/26 04:33:48;;;;;;;5.32;2.63;;;-6.00;99.90;;;;;;5075082;28;20052;-68
2021/12/26 04:36:14;;;;;;;4.53;2.50;;;-6.00;99.90;;;;;;5055307;28;20121;-68
2021/12/26 04:38:40;;;;;;;5.30;2.67;;;-5.90;99.90;;;;;;5058697;28;20052;-68
2021/12/26 04:41:06;;;;;;;5.32;2.40;;;-5.20;99.90;;;;;;5039206;28;20082;-69
2021/12/26 04:43:35;;;;;;;5.05;2.75;;;-5.60;99.90;;;;;;5074362;28;20044;-68
2021/12/26 04:46:05;;;;;;;7.78;2.47;;;-5.90;99.90;;;;;;5057772;28;20044;-67
2021/12/26 04:48:37;;;;;;;5.32;2.05;;;-5.90;99.90;;;;;;5058419;28;20051;-67
2021/12/26 04:51:05;;;;;;;3.45;2.15;;;-5.90;99.90;;;;;;5072399;28;20055;-68
2021/12/26 04:53:32;;;;;;;5.68;2.67;;;-5.70;99.90;;;;;;5074633;28;20051;-68
2021/12/26 04:55:57;;;;;;;5.85;2.42;;;-5.80;99.90;;;;;;5059680;28;20548;-67
2021/12/26 04:58:23;;;;;;;8.60;2.70;;;-5.90;99.90;;;;;;5074573;28;20048;-67
2021/12/26 05:00:49;;;;;;;5.35;2.38;;;-5.90;99.90;;;;;;5074197;28;20048;-68
2021/12/26 05:03:15;;;;;;;7.65;2.65;;;-5.90;99.90;;;;;;5070595;28;20114;-68
2021/12/26 05:05:40;;;;;;;5.07;2.30;;;-5.90;99.90;;;;;;5055663;28;20047;-68
2021/12/26 05:08:06;;;;;;;4.90;2.50;;;-5.20;99.90;;;;;;5057450;28;20078;-67
2021/12/26 05:10:32;;;;;;;4.70;2.45;;;-5.90;99.90;;;;;;5073650;28;20050;-69
2021/12/26 05:13:00;;;;;;;4.75;2.30;;;-5.30;99.90;;;;;;5071834;28;20063;-69
2021/12/26 05:15:26;;;;;;;6.10;2.58;;;-5.90;99.90;;;;;;5073978;28;20059;-69
2021/12/26 05:17:54;;;;;;;6.55;2.70;;;-5.90;99.90;;;;;;5073839;28;20424;-68
2021/12/26 05:20:20;;;;;;;5.80;2.55;;;-5.90;99.90;;;;;;5073992;28;20412;-69
2021/12/26 05:22:48;;;;;;;4.97;2.05;;;-5.90;99.90;;;;;;5073427;28;20051;-69
2021/12/26 05:25:14;;;;;;;5.35;2.42;;;-5.90;99.90;;;;;;5057226;28;20051;-68
2021/12/26 05:27:40;;;;;;;7.20;2.60;;;-5.90;99.90;;;;;;5057517;28;20052;-69
2021/12/26 05:30:09;;;;;;;5.72;2.83;;;-5.90;99.90;;;;;;5073766;28;20051;-69
2021/12/26 05:32:35;;;;;;;6.57;2.88;;;-5.90;99.90;;;;;;5073268;28;20070;-69
2021/12/26 05:35:01;;;;;;;7.65;2.72;;;-5.90;99.90;;;;;;5057236;28;20469;-68
2021/12/26 05:37:26;;;;;;;6.15;2.90;;;-5.90;99.90;;;;;;5073756;28;20472;-68
2021/12/26 05:39:52;;;;;;;6.38;2.80;;;-6.00;99.90;;;;;;5073793;28;20055;-68
2021/12/26 05:42:18;;;;;;;4.95;2.53;;;-6.00;99.90;;;;;;5073388;28;20044;-68
2021/12/26 05:44:44;;;;;;;5.60;2.58;;;-6.00;99.90;;;;;;5069955;28;20045;-70
2021/12/26 05:47:10;;;;;;;5.10;2.70;;;-5.90;99.90;;;;;;5057089;28;20081;-68
2021/12/26 05:49:36;;;;;;;5.43;2.60;;;-6.00;99.90;;;;;;5057129;28;20052;-68
2021/12/26 05:52:02;;;;;;;5.05;2.58;;;-4.70;99.90;;;;;;5073364;28;20552;-68
2021/12/26 05:54:28;;;;;;;5.65;2.60;;;-6.00;99.90;;;;;;5069893;28;20048;-68
2021/12/26 05:56:54;;;;;;;5.35;2.78;;;-5.50;99.90;;;;;;5056478;28;20531;-69
2021/12/26 05:59:19;;;;;;;5.22;2.58;;;-6.00;99.90;;;;;;5053598;28;20460;-68
2021/12/26 06:01:45;;;;;;;5.97;2.80;;;-5.10;99.90;;;;;;5090232;28;20069;-68
2021/12/26 06:04:11;;;;;;;7.50;2.83;;;-6.00;99.90;;;;;;5072217;28;20074;-68
2021/12/26 06:06:37;;;;;;;6.03;3.22;;;-6.00;99.90;;;;;;5073511;28;20094;-69
2021/12/26 06:09:03;;;;;;;8.60;3.10;;;-6.00;99.90;;;;;;5056531;28;20109;-68
2021/12/26 06:11:29;;;;;;;8.73;3.20;;;-6.00;99.90;;;;;;5072906;28;20067;-68
2021/12/26 06:13:55;;;;;;;7.47;2.95;;;-6.10;99.90;;;;;;5055714;28;20117;-69
2021/12/26 06:16:21;;;;;;;5.90;2.78;;;-6.10;99.90;;;;;;5056462;28;20625;-69
2021/12/26 06:18:47;;;;;;;5.13;2.83;;;-5.80;99.90;;;;;;5056843;28;20043;-68
2021/12/26 06:21:12;;;;;;;4.60;2.72;;;-6.00;99.90;;;;;;5056559;28;20451;-68
2021/12/26 06:23:38;;;;;;;4.97;2.88;;;-6.10;99.90;;;;;;5073075;28;20036;-68
2021/12/26 06:26:04;;;;;;;6.03;2.85;;;-6.00;99.90;;;;;;5056622;28;20056;-68
2021/12/26 06:28:30;;;;;;;5.28;2.92;;;-6.10;99.90;;;;;;5056634;28;20123;-68
2021/12/26 06:30:55;;;;;;;6.13;3.10;;;-6.10;99.90;;;;;;5073047;28;20043;-68
2021/12/26 06:33:21;;;;;;;5.63;3.10;;;-6.10;99.90;;;;;;5069916;28;20527;-68
2021/12/26 06:35:49;;;;;;;6.82;3.15;;;-6.10;99.90;;;;;;5073114;28;20484;-69
2021/12/26 06:38:16;;;;;;;9.32;3.33;;;-6.10;99.90;;;;;;5059761;28;20404;-68
2021/12/26 06:40:42;;;;;;;7.03;3.38;;;-4.90;99.90;;;;;;5077190;28;20052;-69
2021/12/26 06:43:08;;;;;;;7.05;3.40;;;-6.20;99.90;;;;;;5059295;28;20048;-69
2021/12/26 06:45:34;;;;;;;8.27;4.07;;;-6.20;99.90;;;;;;5048992;28;20377;-68
2021/12/26 06:48:02;;;;;;;6.80;3.47;;;-6.20;99.90;;;;;;5060587;28;20093;-69
2021/12/26 06:50:28;;;;;;;7.07;3.30;;;-6.20;99.90;;;;;;5076531;28;20492;-68
2021/12/26 06:52:54;;;;;;;6.30;3.22;;;-6.20;99.90;;;;;;5042812;28;20508;-69
2021/12/26 06:55:20;;;;;;;7.03;3.63;;;-6.20;99.90;;;;;;5071704;28;20129;-69
2021/12/26 06:57:46;;;;;;;5.55;3.58;;;-6.20;99.90;;;;;;5076769;28;20443;-69
2021/12/26 07:00:15;;;;;;;8.32;3.85;;;-6.20;99.90;;;;;;5076820;28;20044;-68
2021/12/26 07:02:42;;;;;;;8.07;3.30;;;-6.20;99.90;;;;;;5057212;28;20118;-69
2021/12/26 07:05:11;;;;;;;8.57;3.83;;;-6.20;99.90;;;;;;5060064;28;20048;-69
2021/12/26 07:07:37;;;;;;;7.57;3.85;;;-6.20;99.90;;;;;;5050271;28;20090;-69
2021/12/26 07:10:04;;;;;;;10.43;3.85;;;-6.10;99.90;;;;;;5060335;28;20052;-69
2021/12/26 07:12:30;;;;;;;8.15;4.15;;;-6.10;99.90;;;;;;5059428;28;20056;-70
2021/12/26 07:14:55;;;;;;;6.70;3.60;;;-6.10;99.90;;;;;;5094119;28;20400;-69
2021/12/26 07:17:21;;;;;;;8.52;4.20;;;-6.10;99.90;;;;;;5075128;28;20045;-68
2021/12/26 07:19:47;;;;;;;8.55;4.25;;;-6.10;99.90;;;;;;5027223;28;20040;-68
2021/12/26 07:22:18;;;;;;;9.50;4.03;;;-6.10;99.90;;;;;;5076370;28;20052;-68
2021/12/26 07:24:46;;;;;;;6.80;3.67;;;-4.80;99.90;;;;;;5060753;28;20044;-69
2021/12/26 07:27:13;;;;;;;7.47;3.63;;;-6.00;99.90;;;;;;5076282;28;20084;-68
2021/12/26 07:29:39;;;;;;;7.38;4.40;;;-6.10;99.90;;;;;;5043603;28;20110;-70
2021/12/26 07:32:06;;;;;;;7.90;4.32;;;-6.00;99.90;;;;;;5088665;28;20048;-68
2021/12/26 07:34:33;;;;;;;9.30;4.43;;;-6.00;99.90;;;;;;5075904;28;20055;-69
2021/12/26 07:37:00;;;;;;;8.63;4.13;;;-6.00;99.90;;;;;;5059502;28;20048;-69
2021/12/26 07:39:26;;;;;;;9.48;4.50;;;-6.20;99.90;;;;;;5059148;28;20051;-68
2021/12/26 07:41:52;;;;;;;7.65;4.40;;;-4.90;99.90;;;;;;5075354;28;20040;-69
2021/12/26 07:44:18;;;;;;;10.27;4.43;;;-5.50;99.90;;;;;;5050108;28;20052;-68
2021/12/26 07:46:43;;;;;;;9.18;4.43;;;-6.00;99.90;;;;;;5059343;28;20051;-69
2021/12/26 07:49:09;;;;;;;9.38;4.93;;;-6.00;99.90;;;;;;5075740;28;20182;-68
2021/12/26 07:51:35;;;;;;;9.70;4.68;;;-6.00;99.90;;;;;;5059396;28;20048;-68
2021/12/26 07:54:02;;;;;;;10.10;5.03;;;-6.00;99.90;;;;;;5072748;28;20434;-69
2021/12/26 07:56:31;;;;;;;7.47;4.38;;;-6.00;99.90;;;;;;5058950;28;20054;-69
2021/12/26 07:58:58;;;;;;;9.70;5.05;;;-6.00;99.90;;;;;;5058270;28;20044;-70
2021/12/26 08:01:28;;;;;;;9.70;4.60;;;-6.00;99.90;;;;;;5073492;28;20044;-70
2021/12/26 08:03:54;;;;;;;10.55;5.40;;;-6.00;99.90;;;;;;5056978;28;20040;-69
2021/12/26 08:06:20;;;;;;;9.88;4.75;;;-5.20;99.90;;;;;;5069942;28;20054;-69
2021/12/26 08:08:47;;;;;;;8.68;4.63;;;-6.00;99.90;;;;;;5075516;28;20397;-70
2021/12/26 08:11:13;;;;;;;8.88;4.85;;;-5.90;99.90;;;;;;5075109;28;20047;-68
2021/12/26 08:13:39;;;;;;;9.20;4.88;;;-5.90;99.90;;;;;;5075083;28;20485;-69
2021/12/26 08:16:06;;;;;;;7.97;4.63;;;-4.80;99.90;;;;;;5073673;28;20052;-69
2021/12/26 08:18:32;;;;;;;9.80;4.93;;;-5.80;99.90;;;;;;5075167;28;20110;-68
2021/12/26 08:20:58;;;;;;;8.50;4.55;;;-5.70;99.90;;;;;;5039566;28;20048;-68
2021/12/26 08:23:23;;;;;;;10.02;4.63;;;-5.10;99.90;;;;;;5058228;28;20504;-69
2021/12/26 08:25:49;;;;;;;10.45;4.97;;;-5.60;99.90;;;;;;5056883;28;20044;-69
2021/12/26 08:28:16;;;;;;;7.32;4.13;;;-5.50;99.90;;;;;;5074950;28;20040;-68
2021/12/26 08:30:43;;;;;;;9.15;4.10;;;-5.40;99.90;;;;;;5075272;28;20044;-69
2021/12/26 08:33:09;;;;;;;10.60;4.60;;;-5.40;99.90;;;;;;5058533;28;20545;-69
2021/12/26 08:35:36;;;;;;;8.25;4.22;;;-5.30;99.90;;;;;;5058932;28;20044;-70
2021/12/26 08:38:03;;;;;;;6.88;4.15;;;-5.20;99.90;;;;;;5057135;28;20041;-69
2021/12/26 08:40:29;;;;;;;8.50;3.83;;;-5.20;99.90;;;;;;5057249;28;20070;-70
2021/12/26 08:42:54;;;;;;;11.05;4.60;;;-5.20;99.90;;;;;;5056790;28;20481;-70
2021/12/26 08:45:20;;;;;;;9.52;4.47;;;-4.20;99.90;;;;;;5057796;28;20047;-69
2021/12/26 08:47:47;;;;;;;8.43;4.15;;;-5.00;99.90;;;;;;5057691;28;20118;-70
2021/12/26 08:50:14;;;;;;;8.98;4.47;;;-4.90;99.90;;;;;;5057456;28;20044;-69
2021/12/26 08:52:41;;;;;;;7.45;3.95;;;-4.90;99.90;;;;;;5071457;28;20044;-70
2021/12/26 08:55:08;;;;;;;8.38;3.70;;;-4.80;99.90;;;;;;5057438;28;20044;-71
2021/12/26 08:57:34;;;;;;;10.15;4.25;;;-4.80;99.90;;;;;;5074259;28;20391;-70
2021/12/26 09:00:01;;;;;;;5.38;3.47;;;-4.70;99.90;;;;;;5040242;28;20052;-71
2021/12/26 09:02:27;;;;;;;7.22;3.80;;;-4.60;99.90;;;;;;5051944;28;20047;-71
2021/12/26 09:04:52;;;;;;;5.70;3.13;;;-4.60;99.90;;;;;;5055303;28;20594;-71
2021/12/26 09:07:18;;;;;;;7.38;4.15;;;-4.50;99.90;;;;;;5069489;28;20040;-71
2021/12/26 09:09:46;;;;;;;7.00;3.85;;;-4.30;99.90;;;;;;5073652;28;20394;-72
2021/12/26 09:12:12;;;;;;;8.25;3.80;;;-4.40;99.90;;;;;;5071035;28;20075;-71
2021/12/26 09:14:39;;;;;;;8.23;3.90;;;-4.30;99.90;;;;;;5071599;28;20052;-71
2021/12/26 09:17:06;;;;;;;6.53;3.90;;;-4.30;99.90;;;;;;5051338;28;20140;-72
2021/12/26 09:19:34;;;;;;;6.32;3.65;;;-4.20;99.90;;;;;;5068225;28;20051;-71
2021/12/26 09:22:05;;;;;;;7.80;3.63;;;-4.10;99.90;;;;;;5050321;28;20051;-72
2021/12/26 09:24:31;;;;;;;6.80;3.67;;;-4.00;99.90;;;;;;5071648;28;20041;-72
2021/12/26 09:26:56;;;;;;;7.68;3.22;;;-4.00;99.90;;;;;;5070686;28;20283;-72
2021/12/26 09:29:23;;;;;;;6.43;4.03;;;-3.80;99.90;;;;;;5071747;28;20531;-72
2021/12/26 09:31:50;;;;;;;7.35;3.95;;;-3.80;99.90;;;;;;5072695;28;20043;-73
2021/12/26 09:34:16;;;;;;;7.75;3.92;;;-3.70;99.90;;;;;;5054607;28;20047;-73
2021/12/26 09:36:43;;;;;;;8.10;4.35;;;-3.60;99.90;;;;;;5073087;28;20040;-73
2021/12/26 09:39:10;;;;;;;8.15;4.30;;;-2.80;99.90;;;;;;5071500;28;20084;-73
2021/12/26 09:41:37;;;;;;;6.68;3.60;;;-3.50;99.90;;;;;;5068321;28;20385;-73
2021/12/26 09:44:05;;;;;;;8.10;4.43;;;-2.70;99.90;;;;;;5073021;28;20035;-74
2021/12/26 09:46:32;;;;;;;7.25;3.88;;;-3.40;99.90;;;;;;5060176;28;20044;-73
2021/12/26 09:48:58;;;;;;;6.38;4.07;;;-3.20;99.90;;;;;;5076228;28;20097;-75
2021/12/26 09:51:25;;;;;;;8.63;4.10;;;-3.00;99.90;;;;;;5059869;28;20040;-74
2021/12/26 09:53:51;;;;;;;11.40;4.35;;;-3.10;99.90;;;;;;5077787;28;20121;-74
2021/12/26 09:56:18;;;;;;;9.27;4.22;;;-3.00;99.90;;;;;;5057758;28;20469;-75
2021/12/26 09:59:08;;;;;;;8.38;4.22;;;-2.90;99.90;;;;;;5066829;28;20047;-75
2021/12/26 10:02:00;;;;;;;6.53;3.93;;;-2.80;99.90;;;;;;5073482;28;20131;-75
2021/12/26 10:04:27;;;;;;;;;;;-2.80;99.90;;;;;;5063368;28;20072;-75
2021/12/26 10:07:11;;;;;;;9.13;4.00;;;-2.70;99.90;;;;;;5052636;28;19968;-75
2021/12/26 10:09:43;;;;;;;8.13;4.50;;;-2.60;99.90;;;;;;5070178;28;20497;-75
2021/12/26 10:12:14;;;;;;;7.22;4.15;;;-2.50;99.90;;;;;;5072725;28;20067;-75
2021/12/26 10:14:43;;;;;;;8.75;4.55;;;-2.40;99.90;;;;;;5056351;28;20066;-75
2021/12/26 10:17:12;;;;;;;10.00;4.75;;;-2.30;99.90;;;;;;5070715;28;20106;-75
2021/12/26 10:19:47;;;;;;;7.55;4.43;;;-1.90;99.90;;;;;;5073403;28;20044;-75
2021/12/26 10:22:21;;;;;;;6.78;4.13;;;-1.60;99.90;;;;;;5070204;28;20044;-75
2021/12/26 10:24:51;;;;;;;7.88;4.32;;;-2.00;99.90;;;;;;5072520;28;20044;-75
2021/12/26 10:27:30;;;;;;;8.98;4.88;;;-1.90;99.90;;;;;;5044113;28;20048;-74
2021/12/26 10:29:58;;;;;;;9.13;4.32;;;-1.90;99.90;;;;;;5055887;28;20044;-75
2021/12/26 10:32:36;;;;;;;7.57;4.55;;;-0.70;99.90;;;;;;5056374;28;20564;-74
2021/12/26 10:35:09;;;;;;;8.70;4.50;;;-1.70;99.90;;;;;;5056776;28;20484;-74
2021/12/26 10:37:40;;;;;;;8.60;4.80;;;-1.70;99.90;;;;;;5068662;28;20577;-74
2021/12/26 10:40:12;;;;;;;6.78;4.40;;;-1.40;99.90;;;;;;5072519;28;20082;-74
2021/12/26 10:42:48;;;;;;;10.68;4.70;;;-1.50;99.90;;;;;;5056069;28;20048;-74
2021/12/26 10:45:16;;;;;;;9.20;4.47;;;-0.60;99.90;;;;;;5071493;28;20090;-74
2021/12/26 10:47:45;;;;;;;10.80;4.47;;;-1.20;99.90;;;;;;5052392;28;20107;-73
2021/12/26 10:50:14;;;;;;;8.63;3.88;;;-0.80;99.90;;;;;;5072282;28;20047;-73
2021/12/26 10:52:41;;;;;;;6.53;3.90;;;-1.20;99.90;;;;;;5069911;28;20052;-73
2021/12/26 10:55:13;;;;;;;9.35;4.70;;;-0.80;99.90;;;;;;5073470;28;20130;-74
2021/12/26 10:57:47;;;;;;;8.02;4.30;;;-0.90;99.90;;;;;;5056851;28;20056;-74
2021/12/26 11:00:38;;;;;;;8.70;4.20;;;-0.90;99.90;;;;;;5069117;28;20044;-74
2021/12/26 11:03:11;;;;;;;6.55;3.83;;;-0.90;99.90;;;;;;5059089;28;20064;-73
2021/12/26 11:05:44;;;;;;;8.45;3.90;;;-0.70;99.90;;;;;;5047216;28;20055;-73
2021/12/26 11:08:16;;;;;;;6.82;3.83;;;-0.70;99.90;;;;;;5056543;28;20488;-74
2021/12/26 11:10:51;;;;;;;6.47;3.35;;;0.40;99.90;;;;;;5055179;28;20044;-74
2021/12/26 11:13:28;;;;;;;7.88;4.28;;;-0.50;99.90;;;;;;5066966;28;20048;-74
2021/12/26 11:16:06;;;;;;;4.70;3.20;;;-0.50;99.90;;;;;;5059769;28;20067;-74
2021/12/26 11:18:33;;;;;;;7.38;4.03;;;-0.50;99.90;;;;;;5053132;28;20044;-74
2021/12/26 11:21:03;;;;;;;6.70;3.90;;;-0.40;99.90;;;;;;5050821;28;20333;-74
2021/12/26 11:23:39;;;;;;;7.53;3.80;;;-0.30;99.90;;;;;;5068485;28;20064;-74
2021/12/26 11:26:08;;;;;;;7.18;3.85;;;-0.30;99.90;;;;;;5054173;28;20092;-74
2021/12/26 11:28:40;;;;;;;7.50;3.80;;;0.50;99.90;;;;;;5060372;28;20037;-74
2021/12/26 11:31:10;;;;;;;6.63;4.32;;;1.00;99.90;;;;;;5062943;28;20489;-74
2021/12/26 11:33:37;;;;;;;6.65;3.65;;;0.20;99.90;;;;;;5073276;28;20120;-74
2021/12/26 11:36:06;;;;;;;7.55;3.67;;;1.00;99.90;;;;;;5054714;28;20044;-74
2021/12/26 11:38:33;;;;;;;7.60;3.92;;;1.00;99.90;;;;;;5073721;28;20450;-75
2021/12/26 11:41:03;;;;;;;7.50;3.85;;;1.90;99.90;;;;;;5061493;28;20375;-74
2021/12/26 11:43:48;;;;;;;6.70;3.97;;;1.80;99.90;;;;;;5061458;28;20073;-74
2021/12/26 11:46:36;;;;;;;6.10;3.72;;;2.00;99.90;;;;;;5073008;28;20071;-74
2021/12/26 11:49:34;;;;;;;6.47;3.28;;;2.20;99.90;;;;;;5057075;28;20049;-74
2021/12/26 11:52:32;;;;;;;6.03;3.90;;;2.40;99.90;;;;;;5061215;28;20049;-75
2021/12/26 11:55:38;;;;;;;6.68;3.50;;;2.90;99.90;;;;;;5062428;28;20041;-74
2021/12/26 11:58:28;;;;;;;5.95;4.00;;;2.90;99.90;;;;;;5073829;28;20044;-74
2021/12/26 12:00:57;;;;;;;5.32;3.78;;;3.20;99.90;;;;;;5048171;28;20037;-75
2021/12/26 12:03:28;;;;;;;6.43;4.03;;;3.00;89.80;;;;;;5070102;28;20052;-75
2021/12/26 12:05:54;;;;;;;7.35;4.18;;;3.10;99.90;;;;;;5060975;28;20094;-74
2021/12/26 12:08:23;;;;;;;7.80;4.10;;;3.30;99.90;;;;;;5047555;28;20187;-75
2021/12/26 12:10:55;;;;;;;6.47;3.80;;;3.30;95.50;;;;;;5055460;28;20045;-75
2021/12/26 12:13:27;;;;;;;8.10;4.65;;;3.60;99.90;;;;;;5052219;28;20052;-75
2021/12/26 12:16:07;;;;;;;6.32;3.80;;;3.90;99.90;;;;;;5058868;28;20053;-75
2021/12/26 12:18:36;;;;;;;5.10;3.65;;;4.00;99.90;;;;;;5047308;28;20147;-75
2021/12/26 12:21:23;;;;;;;5.78;3.75;;;4.20;91.10;;;;;;5041133;28;20429;-74
2021/12/26 12:24:07;;;;;;;6.78;3.63;;;4.10;73.60;;;;;;5069092;28;20053;-75
2021/12/26 12:26:52;;;;;;;5.72;3.30;;;4.40;97.40;;;;;;5071384;28;20044;-75
2021/12/26 12:29:24;;;;;;;6.07;3.88;;;4.60;99.90;;;;;;5052955;28;20048;-75
2021/12/26 12:32:09;;;;;;;6.88;3.67;;;4.80;97.60;;;;;;5034885;28;20431;-75
2021/12/26 12:34:51;;;;;;;5.90;3.50;;;4.90;68.50;;;;;;5066646;28;20052;-75
2021/12/26 12:37:49;;;;;;;7.78;3.60;;;5.10;83.60;;;;;;5070410;28;20485;-75
2021/12/26 12:40:30;;;;;;;4.50;3.45;;;5.70;68.20;;;;;;5037571;28;20060;-75
2021/12/26 12:43:08;;;;;;;5.75;3.72;;;5.20;82.10;;;;;;5053827;28;20052;-75
2021/12/26 12:45:52;;;;;;;6.03;3.53;;;5.60;97.40;;;;;;5054192;28;20495;-75
2021/12/26 12:48:31;;;;;;;6.40;3.88;;;5.70;83.90;;;;;;5068167;28;20170;-75
2021/12/26 12:51:15;;;;;;;6.43;3.45;;;5.60;74.70;;;;;;5052671;28;20053;-75
2021/12/26 12:53:54;;;;;;;4.70;3.40;;;5.10;64.00;;;;;;5053992;28;20127;-75
2021/12/26 12:56:29;;;;;;;4.55;3.28;;;6.20;99.90;;;;;;5047739;28;20048;-75
2021/12/26 12:59:13;;;;;;;7.05;3.72;;;5.50;74.80;;;;;;5057769;28;20045;-75